sensor_id;sensor_type;location;lat;lon;timestamp;pressure;altitude;pressure_sealevel;temperature;humidity
76605;BME280;65496;50.978;16.998;2023-02-19T00:01:21;99869.91;;;21.89;36.60
76605;BME280;65496;50.978;16.998;2023-02-19T00:03:50;99875.03;;;21.91;37.05
76605;BME280;65496;50.978;16.998;2023-02-19T00:06:17;99876.19;;;21.90;36.91
76605;BME280;65496;50.978;16.998;2023-02-19T00:08:43;99865.16;;;21.90;36.80
76605;BME280;65496;50.978;16.998;2023-02-19T00:11:18;99873.81;;;21.88;36.76
76605;BME280;65496;50.978;16.998;2023-02-19T00:13:48;99867.16;;;21.89;36.58
76605;BME280;65496;50.978;16.998;2023-02-19T00:16:16;99868.66;;;21.86;36.67
76605;BME280;65496;50.978;16.998;2023-02-19T00:18:43;99875.78;;;21.88;37.05
76605;BME280;65496;50.978;16.998;2023-02-19T00:21:10;99873.81;;;21.88;36.73
76605;BME280;65496;50.978;16.998;2023-02-19T00:23:36;99865.09;;;21.86;36.72
76605;BME280;65496;50.978;16.998;2023-02-19T00:26:10;99863.09;;;21.83;36.52
76605;BME280;65496;50.978;16.998;2023-02-19T00:28:36;99852.50;;;21.85;36.79
76605;BME280;65496;50.978;16.998;2023-02-19T00:31:22;99839.53;;;21.85;36.74
76605;BME280;65496;50.978;16.998;2023-02-19T00:33:51;99844.25;;;21.85;36.69
76605;BME280;65496;50.978;16.998;2023-02-19T00:36:18;99839.09;;;21.83;36.45
76605;BME280;65496;50.978;16.998;2023-02-19T00:38:45;99840.69;;;21.84;36.61
76605;BME280;65496;50.978;16.998;2023-02-19T00:41:13;99843.44;;;21.84;36.86
76605;BME280;65496;50.978;16.998;2023-02-19T00:43:51;99844.25;;;21.85;36.56
76605;BME280;65496;50.978;16.998;2023-02-19T00:46:19;99842.19;;;21.82;36.59
76605;BME280;65496;50.978;16.998;2023-02-19T00:48:46;99834.38;;;21.84;36.61
76605;BME280;65496;50.978;16.998;2023-02-19T00:51:12;99843.78;;;21.83;36.70
76605;BME280;65496;50.978;16.998;2023-02-19T00:53:39;99837.47;;;21.82;36.75
76605;BME280;65496;50.978;16.998;2023-02-19T00:56:05;99833.16;;;21.81;36.69
76605;BME280;65496;50.978;16.998;2023-02-19T00:58:32;99835.13;;;21.81;36.63
76605;BME280;65496;50.978;16.998;2023-02-19T01:00:58;99835.91;;;21.81;36.62
76605;BME280;65496;50.978;16.998;2023-02-19T01:03:24;99818.56;;;21.81;36.55
76605;BME280;65496;50.978;16.998;2023-02-19T01:05:51;99826.03;;;21.80;36.55
76605;BME280;65496;50.978;16.998;2023-02-19T01:08:17;99824.09;;;21.81;36.54
76605;BME280;65496;50.978;16.998;2023-02-19T01:10:43;99826.03;;;21.80;36.64
76605;BME280;65496;50.978;16.998;2023-02-19T01:13:10;99813.06;;;21.81;36.60
76605;BME280;65496;50.978;16.998;2023-02-19T01:15:36;99811.47;;;21.80;36.39
76605;BME280;65496;50.978;16.998;2023-02-19T01:18:02;99818.13;;;21.79;36.52
76605;BME280;65496;50.978;16.998;2023-02-19T01:20:28;99825.59;;;21.78;36.39
76605;BME280;65496;50.978;16.998;2023-02-19T01:22:55;99820.88;;;21.79;36.47
76605;BME280;65496;50.978;16.998;2023-02-19T01:25:21;99822.03;;;21.78;36.43
76605;BME280;65496;50.978;16.998;2023-02-19T01:27:47;99826.78;;;21.77;36.39
76605;BME280;65496;50.978;16.998;2023-02-19T01:30:13;99817.72;;;21.77;36.29
76605;BME280;65496;50.978;16.998;2023-02-19T01:32:39;99813.00;;;21.77;36.37
76605;BME280;65496;50.978;16.998;2023-02-19T01:35:05;99804.69;;;21.74;36.41
76605;BME280;65496;50.978;16.998;2023-02-19T01:37:31;99806.69;;;21.77;36.56
76605;BME280;65496;50.978;16.998;2023-02-19T01:39:57;99812.22;;;21.77;36.46
76605;BME280;65496;50.978;16.998;2023-02-19T01:42:23;99810.59;;;21.76;36.30
76605;BME280;65496;50.978;16.998;2023-02-19T01:45:16;99809.00;;;21.75;36.49
76605;BME280;65496;50.978;16.998;2023-02-19T01:47:45;99797.97;;;21.75;36.55
76605;BME280;65496;50.978;16.998;2023-02-19T01:50:12;99797.97;;;21.75;36.55
76605;BME280;65496;50.978;16.998;2023-02-19T01:52:38;99797.97;;;21.75;36.39
76605;BME280;65496;50.978;16.998;2023-02-19T01:55:06;99784.59;;;21.73;36.45
76605;BME280;65496;50.978;16.998;2023-02-19T01:57:40;99782.19;;;21.72;36.47
76605;BME280;65496;50.978;16.998;2023-02-19T02:00:11;99781.84;;;21.73;36.51
76605;BME280;65496;50.978;16.998;2023-02-19T02:02:40;99771.63;;;21.74;36.29
76605;BME280;65496;50.978;16.998;2023-02-19T02:05:29;99767.25;;;21.73;36.50
76605;BME280;65496;50.978;16.998;2023-02-19T02:07:59;99755.44;;;21.72;36.38
76605;BME280;65496;50.978;16.998;2023-02-19T02:10:45;99745.16;;;21.69;36.52
76605;BME280;65496;50.978;16.998;2023-02-19T02:13:11;99753.47;;;21.73;36.40
76605;BME280;65496;50.978;16.998;2023-02-19T02:18:46;99744.41;;;21.72;36.42
76605;BME280;65496;50.978;16.998;2023-02-19T02:24:55;99738.91;;;21.72;36.35
76605;BME280;65496;50.978;16.998;2023-02-19T02:27:40;99730.63;;;21.72;36.33
76605;BME280;65496;50.978;16.998;2023-02-19T02:30:24;99724.31;;;21.72;36.43
76605;BME280;65496;50.978;16.998;2023-02-19T02:33:25;99732.25;;;21.73;36.19
76605;BME280;65496;50.978;16.998;2023-02-19T02:35:57;99728.63;;;21.69;36.35
76605;BME280;65496;50.978;16.998;2023-02-19T02:38:27;99731.44;;;21.73;36.32
76605;BME280;65496;50.978;16.998;2023-02-19T02:40:54;99730.63;;;21.72;36.16
76605;BME280;65496;50.978;16.998;2023-02-19T02:43:21;99725.13;;;21.72;36.29
76605;BME280;65496;50.978;16.998;2023-02-19T02:45:48;99725.06;;;21.69;36.58
76605;BME280;65496;50.978;16.998;2023-02-19T02:48:33;99725.13;;;21.72;36.44
76605;BME280;65496;50.978;16.998;2023-02-19T02:54:00;99728.69;;;21.73;36.32
76605;BME280;65496;50.978;16.998;2023-02-19T02:56:47;99729.47;;;21.73;36.33
76605;BME280;65496;50.978;16.998;2023-02-19T02:59:17;99712.16;;;21.73;36.27
76605;BME280;65496;50.978;16.998;2023-02-19T03:01:53;99705.47;;;21.74;36.23
76605;BME280;65496;50.978;16.998;2023-02-19T03:10:12;99703.50;;;21.74;36.27
76605;BME280;65496;50.978;16.998;2023-02-19T03:12:41;99707.44;;;21.73;36.24
76605;BME280;65496;50.978;16.998;2023-02-19T03:15:35;99702.28;;;21.72;36.28
76605;BME280;65496;50.978;16.998;2023-02-19T03:18:22;99694.47;;;21.74;36.33
76605;BME280;65496;50.978;16.998;2023-02-19T03:21:08;99694.06;;;21.75;36.35
76605;BME280;65496;50.978;16.998;2023-02-19T03:23:36;99705.09;;;21.75;36.34
76605;BME280;65496;50.978;16.998;2023-02-19T03:26:21;99712.56;;;21.75;36.36
76605;BME280;65496;50.978;16.998;2023-02-19T03:28:50;99702.72;;;21.74;36.09
76605;BME280;65496;50.978;16.998;2023-02-19T03:31:38;99702.34;;;21.75;36.06
76605;BME280;65496;50.978;16.998;2023-02-19T03:34:10;99700.38;;;21.76;36.18
76605;BME280;65496;50.978;16.998;2023-02-19T03:36:43;99685.81;;;21.75;36.07
76605;BME280;65496;50.978;16.998;2023-02-19T03:39:13;99678.34;;;21.76;36.15
76605;BME280;65496;50.978;16.998;2023-02-19T03:47:24;99671.22;;;21.75;36.10
76605;BME280;65496;50.978;16.998;2023-02-19T03:55:38;99661.00;;;21.75;36.11
76605;BME280;65496;50.978;16.998;2023-02-19T03:58:38;99668.13;;;21.76;36.11
76605;BME280;65496;50.978;16.998;2023-02-19T04:01:15;99671.22;;;21.75;36.04
76605;BME280;65496;50.978;16.998;2023-02-19T04:03:50;99659.06;;;21.76;36.00
76605;BME280;65496;50.978;16.998;2023-02-19T04:06:23;99672.03;;;21.75;36.20
76605;BME280;65496;50.978;16.998;2023-02-19T04:08:52;99672.03;;;21.75;36.20
76605;BME280;65496;50.978;16.998;2023-02-19T04:11:20;99674.78;;;21.75;36.23
76605;BME280;65496;50.978;16.998;2023-02-19T04:13:55;99660.22;;;21.75;36.03
76605;BME280;65496;50.978;16.998;2023-02-19T04:16:26;99662.97;;;21.75;36.21
76605;BME280;65496;50.978;16.998;2023-02-19T04:18:56;99665.72;;;21.75;36.03
76605;BME280;65496;50.978;16.998;2023-02-19T04:21:23;99663.75;;;21.75;36.07
76605;BME280;65496;50.978;16.998;2023-02-19T04:23:50;99665.72;;;21.75;36.09
76605;BME280;65496;50.978;16.998;2023-02-19T04:26:19;99671.22;;;21.75;36.17
76605;BME280;65496;50.978;16.998;2023-02-19T04:28:46;99660.97;;;21.72;36.06
76605;BME280;65496;50.978;16.998;2023-02-19T04:31:12;99668.47;;;21.75;36.12
76605;BME280;65496;50.978;16.998;2023-02-19T04:33:38;99676.75;;;21.75;35.88
76605;BME280;65496;50.978;16.998;2023-02-19T04:36:06;99666.91;;;21.74;35.99
76605;BME280;65496;50.978;16.998;2023-02-19T04:38:32;99666.09;;;21.73;36.21
76605;BME280;65496;50.978;16.998;2023-02-19T04:40:58;99666.50;;;21.75;36.27
76605;BME280;65496;50.978;16.998;2023-02-19T04:43:24;99653.91;;;21.74;36.17
76605;BME280;65496;50.978;16.998;2023-02-19T04:45:50;99646.81;;;21.73;35.97
76605;BME280;65496;50.978;16.998;2023-02-19T04:48:16;99646.81;;;21.73;36.08
76605;BME280;65496;50.978;16.998;2023-02-19T04:50:42;99655.88;;;21.74;36.18
76605;BME280;65496;50.978;16.998;2023-02-19T04:53:08;99655.09;;;21.73;35.73
76605;BME280;65496;50.978;16.998;2023-02-19T04:55:38;99655.09;;;21.73;36.07
76605;BME280;65496;50.978;16.998;2023-02-19T04:58:04;99655.88;;;21.74;36.01
76605;BME280;65496;50.978;16.998;2023-02-19T05:00:30;99651.53;;;21.73;36.02
76605;BME280;65496;50.978;16.998;2023-02-19T05:02:59;99649.56;;;21.73;35.97
76605;BME280;65496;50.978;16.998;2023-02-19T05:05:26;99644.06;;;21.73;35.96
76605;BME280;65496;50.978;16.998;2023-02-19T05:07:52;99649.56;;;21.73;36.14
76605;BME280;65496;50.978;16.998;2023-02-19T05:10:18;99646.03;;;21.73;36.11
76605;BME280;65496;50.978;16.998;2023-02-19T05:12:44;99642.09;;;21.74;35.99
76605;BME280;65496;50.978;16.998;2023-02-19T05:15:10;99635.34;;;21.71;35.75
76605;BME280;65496;50.978;16.998;2023-02-19T05:17:36;99638.56;;;21.73;35.92
76605;BME280;65496;50.978;16.998;2023-02-19T05:20:03;99636.59;;;21.74;35.91
76605;BME280;65496;50.978;16.998;2023-02-19T05:22:29;99632.25;;;21.73;36.07
76605;BME280;65496;50.978;16.998;2023-02-19T05:24:55;99631.09;;;21.74;36.16
76605;BME280;65496;50.978;16.998;2023-02-19T05:27:21;99624.34;;;21.71;35.96
76605;BME280;65496;50.978;16.998;2023-02-19T05:29:47;99614.38;;;21.63;36.25
76605;BME280;65496;50.978;16.998;2023-02-19T05:32:13;99627.53;;;21.73;36.04
76605;BME280;65496;50.978;16.998;2023-02-19T05:34:39;99629.09;;;21.74;36.09
76605;BME280;65496;50.978;16.998;2023-02-19T05:37:05;99627.16;;;21.75;35.94
76605;BME280;65496;50.978;16.998;2023-02-19T05:39:31;99627.94;;;21.75;35.94
76605;BME280;65496;50.978;16.998;2023-02-19T05:41:57;99627.16;;;21.75;35.87
76605;BME280;65496;50.978;16.998;2023-02-19T05:44:23;99612.16;;;21.72;35.88
76605;BME280;65496;50.978;16.998;2023-02-19T05:46:50;99617.72;;;21.76;35.79
76605;BME280;65496;50.978;16.998;2023-02-19T05:49:16;99614.97;;;21.76;35.79
76605;BME280;65496;50.978;16.998;2023-02-19T05:51:42;99620.47;;;21.76;35.89
76605;BME280;65496;50.978;16.998;2023-02-19T05:54:08;99618.50;;;21.76;35.76
76605;BME280;65496;50.978;16.998;2023-02-19T05:56:38;99620.47;;;21.76;35.86
76605;BME280;65496;50.978;16.998;2023-02-19T05:59:25;99611.03;;;21.77;35.84
76605;BME280;65496;50.978;16.998;2023-02-19T06:01:53;99613.81;;;21.77;35.87
76605;BME280;65496;50.978;16.998;2023-02-19T06:04:20;99606.69;;;21.76;35.86
76605;BME280;65496;50.978;16.998;2023-02-19T06:06:47;99608.28;;;21.77;35.83
76605;BME280;65496;50.978;16.998;2023-02-19T06:09:13;99616.56;;;21.77;35.91
76605;BME280;65496;50.978;16.998;2023-02-19T06:11:39;99614.59;;;21.77;35.91
76605;BME280;65496;50.978;16.998;2023-02-19T06:14:06;99621.69;;;21.78;36.05
76605;BME280;65496;50.978;16.998;2023-02-19T06:16:31;99602.69;;;21.70;35.75
76605;BME280;65496;50.978;16.998;2023-02-19T06:19:03;99614.22;;;21.79;35.95
76605;BME280;65496;50.978;16.998;2023-02-19T06:21:29;99623.28;;;21.79;35.94
76605;BME280;65496;50.978;16.998;2023-02-19T06:23:55;99617.75;;;21.79;35.95
76605;BME280;65496;50.978;16.998;2023-02-19T06:26:23;99619.72;;;21.79;35.88
76605;BME280;65496;50.978;16.998;2023-02-19T06:28:50;99624.88;;;21.80;35.77
76605;BME280;65496;50.978;16.998;2023-02-19T06:31:18;99623.28;;;21.79;35.93
76605;BME280;65496;50.978;16.998;2023-02-19T06:33:45;99617.72;;;21.76;35.93
76605;BME280;65496;50.978;16.998;2023-02-19T06:36:15;99618.56;;;21.80;35.76
76605;BME280;65496;50.978;16.998;2023-02-19T06:38:43;99628.78;;;21.79;35.91
76605;BME280;65496;50.978;16.998;2023-02-19T06:41:12;99635.09;;;21.80;35.88
76605;BME280;65496;50.978;16.998;2023-02-19T06:43:38;99637.84;;;21.80;35.86
76605;BME280;65496;50.978;16.998;2023-02-19T06:46:05;99645.75;;;21.81;35.67
76605;BME280;65496;50.978;16.998;2023-02-19T06:48:33;99642.22;;;21.81;35.98
76605;BME280;65496;50.978;16.998;2023-02-19T06:50:59;99644.16;;;21.80;35.86
76605;BME280;65496;50.978;16.998;2023-02-19T06:53:25;99640.66;;;21.83;35.84
76605;BME280;65496;50.978;16.998;2023-02-19T06:56:18;99646.97;;;21.84;35.88
76605;BME280;65496;50.978;16.998;2023-02-19T06:58:45;99643.84;;;21.85;35.95
76605;BME280;65496;50.978;16.998;2023-02-19T07:01:11;99644.63;;;21.86;36.02
76605;BME280;65496;50.978;16.998;2023-02-19T07:03:37;99639.09;;;21.86;36.24
76605;BME280;65496;50.978;16.998;2023-02-19T07:06:03;99639.50;;;21.84;36.27
76605;BME280;65496;50.978;16.998;2023-02-19T07:08:30;99647.38;;;21.86;35.93
76605;BME280;65496;50.978;16.998;2023-02-19T07:10:57;99656.09;;;21.88;36.07
76605;BME280;65496;50.978;16.998;2023-02-19T07:15:51;99655.66;;;21.86;36.01
76605;BME280;65496;50.978;16.998;2023-02-19T07:18:22;99657.25;;;21.87;36.13
76605;BME280;65496;50.978;16.998;2023-02-19T07:20:48;99662.47;;;21.92;36.33
76605;BME280;65496;50.978;16.998;2023-02-19T07:23:14;99666.03;;;21.93;36.32
76605;BME280;65496;50.978;16.998;2023-02-19T07:25:40;99670.75;;;21.92;36.13
76605;BME280;65496;50.978;16.998;2023-02-19T07:28:06;99673.09;;;21.94;36.25
76605;BME280;65496;50.978;16.998;2023-02-19T07:30:33;99673.81;;;21.91;36.15
76605;BME280;65496;50.978;16.998;2023-02-19T07:32:59;99685.31;;;21.93;36.18
76605;BME280;65496;50.978;16.998;2023-02-19T07:35:25;99690.03;;;21.92;36.20
76605;BME280;65496;50.978;16.998;2023-02-19T07:37:52;99679.28;;;21.87;36.05
76605;BME280;65496;50.978;16.998;2023-02-19T07:40:18;99684.06;;;21.90;36.30
76605;BME280;65496;50.978;16.998;2023-02-19T07:42:44;99684.06;;;21.90;36.16
76605;BME280;65496;50.978;16.998;2023-02-19T07:45:10;99684.06;;;21.90;36.13
76605;BME280;65496;50.978;16.998;2023-02-19T07:47:36;99689.91;;;21.85;36.08
76605;BME280;65496;50.978;16.998;2023-02-19T07:52:28;99701.38;;;21.91;36.14
76605;BME280;65496;50.978;16.998;2023-02-19T07:54:54;99717.59;;;21.92;36.25
76605;BME280;65496;50.978;16.998;2023-02-19T07:57:20;99717.13;;;21.90;36.24
76605;BME280;65496;50.978;16.998;2023-02-19T07:59:46;99727.03;;;21.91;36.25
76605;BME280;65496;50.978;16.998;2023-02-19T08:02:17;99739.66;;;21.92;36.25
76605;BME280;65496;50.978;16.998;2023-02-19T08:05:04;99744.00;;;21.93;36.12
76605;BME280;65496;50.978;16.998;2023-02-19T08:07:34;99746.00;;;21.96;36.44
76605;BME280;65496;50.978;16.998;2023-02-19T08:10:02;99743.25;;;21.96;36.76
76605;BME280;65496;50.978;16.998;2023-02-19T08:12:57;99751.19;;;22.01;36.77
76605;BME280;65496;50.978;16.998;2023-02-19T08:15:41;99756.00;;;22.04;36.67
76605;BME280;65496;50.978;16.998;2023-02-19T08:18:09;99754.38;;;22.03;36.68
76605;BME280;65496;50.978;16.998;2023-02-19T08:20:35;99770.94;;;22.03;36.68
76605;BME280;65496;50.978;16.998;2023-02-19T08:23:01;99769.31;;;22.02;36.80
76605;BME280;65496;50.978;16.998;2023-02-19T08:25:28;99761.41;;;21.97;36.76
76605;BME280;65496;50.978;16.998;2023-02-19T08:27:54;99780.75;;;22.01;36.42
76605;BME280;65496;50.978;16.998;2023-02-19T08:30:20;99789.78;;;22.01;36.32
76605;BME280;65496;50.978;16.998;2023-02-19T08:32:47;99803.22;;;22.03;36.62
76605;BME280;65496;50.978;16.998;2023-02-19T08:35:13;99809.09;;;22.01;36.32
76605;BME280;65496;50.978;16.998;2023-02-19T08:37:39;99811.84;;;22.01;36.50
76605;BME280;65496;50.978;16.998;2023-02-19T08:40:05;99820.13;;;22.01;36.40
76605;BME280;65496;50.978;16.998;2023-02-19T08:42:31;99820.13;;;22.01;36.40
76605;BME280;65496;50.978;16.998;2023-02-19T08:44:57;99830.78;;;22.03;36.46
76605;BME280;65496;50.978;16.998;2023-02-19T08:47:24;99820.56;;;22.03;36.34
76605;BME280;65496;50.978;16.998;2023-02-19T08:49:50;99826.88;;;22.04;36.27
76605;BME280;65496;50.978;16.998;2023-02-19T08:52:16;99831.22;;;22.05;36.52
76605;BME280;65496;50.978;16.998;2023-02-19T08:54:42;99832.78;;;22.06;36.33
76605;BME280;65496;50.978;16.998;2023-02-19T08:57:08;99841.88;;;22.06;36.34
76605;BME280;65496;50.978;16.998;2023-02-19T08:59:34;99843.47;;;22.07;36.43
76605;BME280;65496;50.978;16.998;2023-02-19T09:02:00;99845.06;;;22.08;36.22
76605;BME280;65496;50.978;16.998;2023-02-19T09:04:26;99846.63;;;22.09;36.48
76605;BME280;65496;50.978;16.998;2023-02-19T09:06:52;99851.78;;;22.11;36.40
76605;BME280;65496;50.978;16.998;2023-02-19T09:09:18;99862.03;;;22.10;36.35
76605;BME280;65496;50.978;16.998;2023-02-19T09:11:45;99865.56;;;22.11;36.42
76605;BME280;65496;50.978;16.998;2023-02-19T09:14:11;99875.81;;;22.10;36.68
76605;BME280;65496;50.978;16.998;2023-02-19T09:16:37;99893.94;;;22.11;36.52
76605;BME280;65496;50.978;16.998;2023-02-19T09:19:03;99891.19;;;22.11;36.62
76605;BME280;65496;50.978;16.998;2023-02-19T09:21:30;99899.47;;;22.11;36.58
76605;BME280;65496;50.978;16.998;2023-02-19T09:23:55;99895.56;;;22.12;36.51
76605;BME280;65496;50.978;16.998;2023-02-19T09:26:22;99904.25;;;22.14;36.96
76605;BME280;65496;50.978;16.998;2023-02-19T09:28:49;99909.75;;;22.14;36.93
76605;BME280;65496;50.978;16.998;2023-02-19T09:31:16;99911.34;;;22.15;36.75
76605;BME280;65496;50.978;16.998;2023-02-19T09:33:46;99912.56;;;22.18;36.85
76605;BME280;65496;50.978;16.998;2023-02-19T09:36:14;99913.81;;;22.20;37.37
76605;BME280;65496;50.978;16.998;2023-02-19T09:38:41;99925.25;;;22.22;37.54
76605;BME280;65496;50.978;16.998;2023-02-19T09:41:41;99922.16;;;22.24;37.37
76605;BME280;65496;50.978;16.998;2023-02-19T09:44:34;99920.16;;;22.24;37.39
76605;BME280;65496;50.978;16.998;2023-02-19T09:47:01;99933.59;;;22.26;37.06
76605;BME280;65496;50.978;16.998;2023-02-19T09:49:32;99940.72;;;22.27;36.84
76605;BME280;65496;50.978;16.998;2023-02-19T09:52:48;99934.41;;;22.26;36.92
76605;BME280;65496;50.978;16.998;2023-02-19T09:54:49;99950.59;;;22.28;36.69
76605;BME280;65496;50.978;16.998;2023-02-19T09:57:18;99956.88;;;22.28;36.40
76605;BME280;65496;50.978;16.998;2023-02-19T10:00:00;99960.81;;;22.27;36.58
76605;BME280;65496;50.978;16.998;2023-02-19T10:02:27;99971.06;;;22.27;36.47
76605;BME280;65496;50.978;16.998;2023-02-19T10:04:56;99967.13;;;22.28;36.29
76605;BME280;65496;50.978;16.998;2023-02-19T10:07:42;99964.38;;;22.28;35.92
76605;BME280;65496;50.978;16.998;2023-02-19T10:12:39;99978.22;;;22.31;35.88
76605;BME280;65496;50.978;16.998;2023-02-19T10:15:16;99969.94;;;22.31;35.69
76605;BME280;65496;50.978;16.998;2023-02-19T10:17:43;99982.56;;;22.32;35.70
76605;BME280;65496;50.978;16.998;2023-02-19T10:20:20;99986.13;;;22.33;35.40
76605;BME280;65496;50.978;16.998;2023-02-19T10:23:03;99976.34;;;22.36;35.48
76605;BME280;65496;50.978;16.998;2023-02-19T10:25:31;99986.19;;;22.37;35.21
76605;BME280;65496;50.978;16.998;2023-02-19T10:27:58;99996.06;;;22.38;35.01
76605;BME280;65496;50.978;16.998;2023-02-19T10:30:31;100006.28;;;22.37;35.05
76605;BME280;65496;50.978;16.998;2023-02-19T10:33:01;100011.06;;;22.40;34.92
76605;BME280;65496;50.978;16.998;2023-02-19T10:35:28;100020.13;;;22.41;34.87
76605;BME280;65496;50.978;16.998;2023-02-19T10:37:55;100015.44;;;22.41;34.65
76605;BME280;65496;50.978;16.998;2023-02-19T10:40:24;100009.56;;;22.43;34.55
76605;BME280;65496;50.978;16.998;2023-02-19T10:43:00;100020.19;;;22.44;34.51
76605;BME280;65496;50.978;16.998;2023-02-19T10:45:44;100025.38;;;22.46;34.67
76605;BME280;65496;50.978;16.998;2023-02-19T10:48:23;100026.97;;;22.47;34.34
76605;BME280;65496;50.978;16.998;2023-02-19T10:50:54;100036.81;;;22.48;34.23
76605;BME280;65496;50.978;16.998;2023-02-19T10:53:23;100038.41;;;22.49;34.11
76605;BME280;65496;50.978;16.998;2023-02-19T10:56:26;100043.59;;;22.50;34.04
76605;BME280;65496;50.978;16.998;2023-02-19T11:02:07;100051.91;;;22.54;33.90
76605;BME280;65496;50.978;16.998;2023-02-19T11:04:40;100048.78;;;22.55;33.75
76605;BME280;65496;50.978;16.998;2023-02-19T11:07:12;100052.34;;;22.56;33.94
76605;BME280;65496;50.978;16.998;2023-02-19T11:09:42;100054.75;;;22.57;33.74
76605;BME280;65496;50.978;16.998;2023-02-19T11:12:12;100055.53;;;22.58;33.91
76605;BME280;65496;50.978;16.998;2023-02-19T11:14:43;100064.25;;;22.60;33.80
76605;BME280;65496;50.978;16.998;2023-02-19T11:17:22;100052.84;;;22.61;33.67
76605;BME280;65496;50.978;16.998;2023-02-19T11:19:56;100056.41;;;22.62;33.57
76605;BME280;65496;50.978;16.998;2023-02-19T11:22:40;100053.66;;;22.62;33.40
76605;BME280;65496;50.978;16.998;2023-02-19T11:27:58;100061.94;;;22.62;33.31
76605;BME280;65496;50.978;16.998;2023-02-19T11:33:12;100059.16;;;22.62;33.24
76605;BME280;65496;50.978;16.998;2023-02-19T11:35:48;100052.03;;;22.61;33.23
76605;BME280;65496;50.978;16.998;2023-02-19T11:38:16;100058.78;;;22.63;33.09
76605;BME280;65496;50.978;16.998;2023-02-19T11:46:47;100058.84;;;22.67;32.60
76605;BME280;65496;50.978;16.998;2023-02-19T11:49:50;100062.06;;;22.69;32.78
76605;BME280;65496;50.978;16.998;2023-02-19T11:57:43;100062.06;;;22.69;32.61
76605;BME280;65496;50.978;16.998;2023-02-19T12:00:23;100055.00;;;22.71;32.54
76605;BME280;65496;50.978;16.998;2023-02-19T12:14:31;100080.66;;;22.72;32.42
76605;BME280;65496;50.978;16.998;2023-02-19T12:17:35;100084.22;;;22.72;32.14
76605;BME280;65496;50.978;16.998;2023-02-19T12:23:43;100095.69;;;22.74;32.10
76605;BME280;65496;50.978;16.998;2023-02-19T12:26:28;100105.94;;;22.74;32.36
76605;BME280;65496;50.978;16.998;2023-02-19T12:32:01;100121.69;;;22.73;32.38
76605;BME280;65496;50.978;16.998;2023-02-19T12:35:18;100120.91;;;22.73;32.22
76605;BME280;65496;50.978;16.998;2023-02-19T12:37:37;100126.84;;;22.75;32.33
76605;BME280;65496;50.978;16.998;2023-02-19T12:45:37;100134.81;;;22.80;32.04
76605;BME280;65496;50.978;16.998;2023-02-19T12:50:38;100130.09;;;22.81;32.25
76605;BME280;65496;50.978;16.998;2023-02-19T12:55:48;100132.81;;;22.77;31.87
76605;BME280;65496;50.978;16.998;2023-02-19T12:58:43;100145.88;;;22.80;32.01
76605;BME280;65496;50.978;16.998;2023-02-19T13:01:09;100154.16;;;22.80;31.91
76605;BME280;65496;50.978;16.998;2023-02-19T13:04:05;100153.34;;;22.79;32.10
76605;BME280;65496;50.978;16.998;2023-02-19T13:06:57;100163.16;;;22.77;32.03
76605;BME280;65496;50.978;16.998;2023-02-19T13:09:36;100151.31;;;22.76;32.16
76605;BME280;65496;50.978;16.998;2023-02-19T13:12:12;100162.00;;;22.78;31.66
76605;BME280;65496;50.978;16.998;2023-02-19T13:14:44;100166.72;;;22.77;31.81
76605;BME280;65496;50.978;16.998;2023-02-19T13:20:35;100167.88;;;22.76;31.47
76605;BME280;65496;50.978;16.998;2023-02-19T13:26:36;100185.25;;;22.77;31.67
76605;BME280;65496;50.978;16.998;2023-02-19T13:29:29;100182.50;;;22.77;31.54
76605;BME280;65496;50.978;16.998;2023-02-19T13:35:32;100181.69;;;22.76;31.71
76605;BME280;65496;50.978;16.998;2023-02-19T13:38:04;100182.84;;;22.75;31.42
76605;BME280;65496;50.978;16.998;2023-02-19T13:40:38;100178.94;;;22.76;31.32
76605;BME280;65496;50.978;16.998;2023-02-19T13:43:17;100189.97;;;22.76;31.05
76605;BME280;65496;50.978;16.998;2023-02-19T13:45:45;100190.78;;;22.77;31.40
76605;BME280;65496;50.978;16.998;2023-02-19T13:50:49;100186.84;;;22.78;31.33
76605;BME280;65496;50.978;16.998;2023-02-19T14:04:43;100203.84;;;22.80;31.27
76605;BME280;65496;50.978;16.998;2023-02-19T14:30:44;100238.91;;;22.79;30.79
76605;BME280;65496;50.978;16.998;2023-02-19T14:33:14;100238.91;;;22.79;30.83
76605;BME280;65496;50.978;16.998;2023-02-19T14:35:46;100222.16;;;22.69;30.86
76605;BME280;65496;50.978;16.998;2023-02-19T14:38:21;100222.97;;;22.69;30.68
76605;BME280;65496;50.978;16.998;2023-02-19T14:40:49;100245.25;;;22.80;30.64
76605;BME280;65496;50.978;16.998;2023-02-19T14:43:18;100242.47;;;22.80;30.57
76605;BME280;65496;50.978;16.998;2023-02-19T14:45:54;100246.06;;;22.81;30.64
76605;BME280;65496;50.978;16.998;2023-02-19T14:48:34;100255.13;;;22.81;30.66
76605;BME280;65496;50.978;16.998;2023-02-19T14:51:07;100254.31;;;22.81;30.58
76605;BME280;65496;50.978;16.998;2023-02-19T14:53:38;100252.31;;;22.77;30.46
76605;BME280;65496;50.978;16.998;2023-02-19T14:56:33;100265.38;;;22.81;30.56
76605;BME280;65496;50.978;16.998;2023-02-19T14:59:27;100275.63;;;22.80;30.19
76605;BME280;65496;50.978;16.998;2023-02-19T15:01:59;100296.09;;;22.79;30.33
76605;BME280;65496;50.978;16.998;2023-02-19T15:04:36;100290.56;;;22.79;30.39
76605;BME280;65496;50.978;16.998;2023-02-19T15:07:07;100294.50;;;22.78;30.28
76605;BME280;65496;50.978;16.998;2023-02-19T15:09:43;100295.66;;;22.77;30.24
76605;BME280;65496;50.978;16.998;2023-02-19T15:12:16;100306.72;;;22.77;30.24
76605;BME280;65496;50.978;16.998;2023-02-19T15:14:44;100307.88;;;22.76;30.24
76605;BME280;65496;50.978;16.998;2023-02-19T15:17:23;100304.31;;;22.75;30.13
76605;BME280;65496;50.978;16.998;2023-02-19T15:19:50;100312.16;;;22.73;30.65